Alcester, United Kingdom
Current Conditions -  °F | °C
As of 7:20 AM on Sunday 23 Nov 2014 (Local Time) from EGBB Reporting Station
Light Rain Light Rain  
Wind Chill: 45°   Ceiling: 4800
Heat Index: 45°   Visibility: 6mi
Dew Point: 45°   Wind: 3mph
Humidity: 100%   Direction: 350°N
Pressure: 30.03"   Gusts: NA
Location:  52.22°N, 1.87°W
Report Text: EGBB 230720Z 35003KT 9999 -RA BKN048 07/07 Q1017
Loading
Personal Weather Stations






























Interactive Weather Map New forecast layout! Learn more

10-Day Weather Forecast

Advertisements
Track Severe Weather on mobile